Time;durP1;ratioP1;P1;durP2;ratioP2;P2;SDS_P1;SDS_P2;PMS_P1;PMS_P2;Temp;Humidity;BMP_temperature;BMP_pressure;BME280_temperature;BME280_humidity;BME280_pressure;Samples;Min_cycle;Max_cycle;Signal;HPM_P1;HPM_P2
2022/12/18 00:01:48;;;;;;;49.70;30.05;;;-4.50;99.90;;;;;;5033987;28;20194;-68
2022/12/18 00:04:20;;;;;;;40.75;27.95;;;-4.40;99.90;;;;;;5027105;28;20200;-70
2022/12/18 00:06:47;;;;;;;45.42;27.83;;;-4.30;99.90;;;;;;5027060;28;20212;-70
2022/12/18 00:09:14;;;;;;;45.03;30.63;;;-4.30;99.90;;;;;;5031946;28;20246;-70
2022/12/18 00:11:44;;;;;;;49.03;29.98;;;-4.40;99.90;;;;;;5038991;28;20251;-70
2022/12/18 00:14:13;;;;;;;50.25;27.90;;;-4.40;99.90;;;;;;5035428;28;20613;-70
2022/12/18 00:16:41;;;;;;;43.38;30.20;;;-4.40;99.90;;;;;;5031547;28;20717;-67
2022/12/18 00:19:08;;;;;;;53.53;30.92;;;-4.30;99.90;;;;;;5038580;28;20310;-69
2022/12/18 00:21:36;;;;;;;42.53;27.88;;;-4.50;99.90;;;;;;5036863;28;20212;-68
2022/12/18 00:24:03;;;;;;;47.97;30.52;;;-4.70;99.90;;;;;;5029760;28;20262;-70
2022/12/18 00:26:33;;;;;;;46.67;29.65;;;-4.70;99.90;;;;;;5045904;28;20222;-68
2022/12/18 00:29:03;;;;;;;53.15;31.33;;;-4.70;99.90;;;;;;5039357;28;20242;-68
2022/12/18 00:31:30;;;;;;;46.50;32.05;;;-4.70;99.90;;;;;;5034587;28;20726;-71
2022/12/18 00:33:57;;;;;;;49.30;28.95;;;-4.90;99.90;;;;;;5034832;28;20295;-69
2022/12/18 00:36:29;;;;;;;50.10;28.75;;;-4.90;99.90;;;;;;5028641;28;20569;-70
2022/12/18 00:39:01;;;;;;;43.80;27.50;;;-4.90;99.90;;;;;;5033462;28;20200;-68
2022/12/18 00:44:17;;;;;;;46.63;27.92;;;-4.90;99.90;;;;;;5031202;28;20302;-69
2022/12/18 00:46:46;;;;;;;55.70;31.60;;;-4.80;99.90;;;;;;5036854;28;20696;-69
2022/12/18 00:49:14;;;;;;;42.28;29.98;;;-4.80;99.90;;;;;;5039890;28;20253;-70
2022/12/18 00:51:42;;;;;;;52.25;31.33;;;-4.80;99.90;;;;;;5033760;28;20657;-69
2022/12/18 00:54:09;;;;;;;49.40;31.67;;;-4.80;99.90;;;;;;5049567;28;20199;-70
2022/12/18 00:56:38;;;;;;;42.50;28.13;;;-4.90;99.90;;;;;;5036781;28;20241;-70
2022/12/18 00:59:05;;;;;;;42.97;28.65;;;-4.80;99.90;;;;;;5027958;28;20225;-68
2022/12/18 01:01:34;;;;;;;49.35;29.45;;;-4.90;99.90;;;;;;5036947;28;20278;-68
2022/12/18 01:04:02;;;;;;;43.63;28.00;;;-5.00;99.90;;;;;;5041095;28;20213;-68
2022/12/18 01:06:29;;;;;;;52.30;30.88;;;-5.00;99.90;;;;;;5034626;28;20211;-70
2022/12/18 01:08:56;;;;;;;48.13;29.27;;;-5.00;99.90;;;;;;5035494;28;20248;-71
2022/12/18 01:11:23;;;;;;;55.35;29.75;;;-5.10;99.90;;;;;;5033063;28;20220;-70
2022/12/18 01:13:50;;;;;;;45.40;29.75;;;-5.10;99.90;;;;;;5025527;28;20300;-69
2022/12/18 01:16:18;;;;;;;47.83;30.17;;;-5.10;99.90;;;;;;5033266;28;20196;-68
2022/12/18 01:18:47;;;;;;;47.45;27.50;;;-5.10;99.90;;;;;;5030731;28;20201;-68
2022/12/18 01:21:15;;;;;;;45.38;29.13;;;-5.00;99.90;;;;;;5034493;28;20210;-71
2022/12/18 01:23:42;;;;;;;52.65;27.67;;;-4.90;99.90;;;;;;5029497;28;20288;-70
2022/12/18 01:26:13;;;;;;;45.22;29.92;;;-4.90;99.90;;;;;;5038273;28;20201;-69
2022/12/18 01:28:41;;;;;;;44.58;28.77;;;-4.90;99.90;;;;;;5040626;28;20201;-68
2022/12/18 01:31:16;;;;;;;45.78;29.58;;;-4.90;99.90;;;;;;5025838;28;20258;-68
2022/12/18 01:33:44;;;;;;;39.28;26.48;;;-5.00;99.90;;;;;;5040525;28;20259;-70
2022/12/18 01:36:17;;;;;;;49.40;28.40;;;-5.10;99.90;;;;;;5043702;28;20211;-69
2022/12/18 01:38:46;;;;;;;45.03;27.08;;;-5.10;99.90;;;;;;5035443;28;20213;-69
2022/12/18 01:41:14;;;;;;;36.03;24.20;;;-5.10;99.90;;;;;;5046820;28;20277;-69
2022/12/18 01:43:53;;;;;;;44.72;26.35;;;-5.00;99.90;;;;;;5039131;28;20680;-68
2022/12/18 01:46:23;;;;;;;45.58;27.52;;;-5.10;99.90;;;;;;5023838;28;20206;-70
2022/12/18 01:49:01;;;;;;;39.95;26.60;;;-5.10;99.90;;;;;;5039589;28;20210;-68
2022/12/18 01:51:31;;;;;;;43.35;27.00;;;-5.10;99.90;;;;;;5031631;28;20280;-68
2022/12/18 01:54:00;;;;;;;36.50;24.42;;;-5.00;99.90;;;;;;5034216;28;20212;-68
2022/12/18 01:56:27;;;;;;;41.47;25.42;;;-5.10;99.90;;;;;;5023608;28;20659;-69
2022/12/18 01:58:59;;;;;;;39.60;25.50;;;-5.10;99.90;;;;;;5022270;28;20201;-67
2022/12/18 02:01:26;;;;;;;40.13;28.55;;;-5.10;99.90;;;;;;5019626;28;20203;-71
2022/12/18 02:03:54;;;;;;;41.08;25.52;;;-5.10;99.90;;;;;;5040317;28;20667;-69
2022/12/18 02:06:27;;;;;;;42.38;26.25;;;-5.10;99.90;;;;;;5030692;28;20213;-70
2022/12/18 02:09:04;;;;;;;42.05;25.33;;;-5.10;99.90;;;;;;5041873;28;20240;-69
2022/12/18 02:11:43;;;;;;;43.10;24.98;;;-5.00;99.90;;;;;;5039902;28;20339;-68
2022/12/18 02:14:24;;;;;;;37.53;22.98;;;-4.90;99.90;;;;;;5033192;28;20295;-70
2022/12/18 02:16:58;;;;;;;38.13;24.33;;;-5.00;99.90;;;;;;5041817;28;20196;-71
2022/12/18 02:19:57;;;;;;;37.97;25.05;;;-5.00;99.90;;;;;;5033776;28;20311;-69
2022/12/18 02:22:34;;;;;;;38.30;24.42;;;-5.00;99.90;;;;;;5006836;28;20642;-68
2022/12/18 02:25:18;;;;;;;43.55;25.23;;;-4.90;99.90;;;;;;5013736;28;20660;-68
2022/12/18 02:27:50;;;;;;;34.63;23.40;;;-4.90;99.90;;;;;;5029863;28;20246;-70
2022/12/18 02:30:19;;;;;;;42.58;22.58;;;-5.00;99.90;;;;;;5028463;28;20221;-66
2022/12/18 02:32:51;;;;;;;29.98;22.27;;;-5.00;99.90;;;;;;5026379;28;20225;-67
2022/12/18 02:35:28;;;;;;;33.17;23.42;;;-5.00;99.90;;;;;;5031279;28;20205;-71
2022/12/18 02:37:56;;;;;;;48.10;25.23;;;-5.00;99.90;;;;;;5017760;28;20201;-68
2022/12/18 02:40:27;;;;;;;38.28;24.25;;;-5.00;99.90;;;;;;5026027;28;20707;-69
2022/12/18 02:42:55;;;;;;;43.28;23.95;;;-5.00;99.90;;;;;;5031070;28;20196;-70
2022/12/18 02:45:22;;;;;;;44.85;22.05;;;-4.90;99.90;;;;;;5027763;28;20288;-67
2022/12/18 02:47:51;;;;;;;30.10;21.90;;;-4.90;99.90;;;;;;5037977;28;20208;-71
2022/12/18 02:50:23;;;;;;;35.53;24.15;;;-4.80;99.90;;;;;;5041830;28;20220;-70
2022/12/18 02:53:01;;;;;;;31.48;21.55;;;-4.80;99.90;;;;;;5039537;28;20227;-69
2022/12/18 02:55:44;;;;;;;34.70;20.85;;;-4.80;99.90;;;;;;5024746;28;20200;-69
2022/12/18 02:58:18;;;;;;;27.35;19.77;;;-4.80;99.90;;;;;;5025945;28;20593;-70
2022/12/18 03:00:50;;;;;;;32.83;21.20;;;-4.90;99.90;;;;;;5027945;28;20286;-69
2022/12/18 03:03:25;;;;;;;36.22;21.88;;;-4.90;99.90;;;;;;5079949;22;20229;-82
2022/12/18 03:05:56;;;;;;;30.25;20.15;;;-4.90;99.90;;;;;;5071972;28;20210;-80
2022/12/18 03:08:25;;;;;;;29.92;19.50;;;-4.90;99.90;;;;;;5071876;28;20251;-81
2022/12/18 03:10:59;;;;;;;31.58;19.48;;;-4.90;99.90;;;;;;5064557;28;20236;-81
2022/12/18 03:13:32;;;;;;;28.13;19.73;;;-4.90;99.90;;;;;;5061355;28;20303;-82
2022/12/18 03:16:02;;;;;;;25.27;17.60;;;-5.00;99.90;;;;;;5054620;28;20228;-83
2022/12/18 03:18:34;;;;;;;36.15;21.17;;;-5.00;99.90;;;;;;5046168;28;20448;-82
2022/12/18 03:21:06;;;;;;;27.88;16.88;;;-5.00;99.90;;;;;;5050485;28;20212;-81
2022/12/18 03:23:37;;;;;;;30.45;18.58;;;-5.00;99.90;;;;;;5050755;28;20223;-81
2022/12/18 03:26:08;;;;;;;28.08;18.80;;;-4.90;99.90;;;;;;5044413;28;20204;-82
2022/12/18 03:28:40;;;;;;;39.00;20.45;;;-4.80;99.90;;;;;;5049541;28;20243;-79
2022/12/18 03:31:10;;;;;;;31.33;18.17;;;-4.80;99.90;;;;;;5045640;28;20204;-81
2022/12/18 03:33:41;;;;;;;39.17;19.65;;;-4.80;99.90;;;;;;5053705;28;20295;-80
2022/12/18 03:36:08;;;;;;;34.78;20.75;;;-4.90;99.90;;;;;;5052280;28;20202;-81
2022/12/18 03:38:35;;;;;;;26.50;16.75;;;-4.90;99.90;;;;;;5048413;28;20196;-82
2022/12/18 03:41:09;;;;;;;24.77;16.90;;;-4.90;99.90;;;;;;5056314;28;20196;-83
2022/12/18 03:43:44;;;;;;;26.60;18.65;;;-4.90;99.90;;;;;;5046928;28;20287;-82
2022/12/18 03:46:18;;;;;;;26.42;17.75;;;-5.00;99.90;;;;;;5048863;28;20255;-81
2022/12/18 03:48:49;;;;;;;32.10;17.70;;;-4.90;99.90;;;;;;5035900;28;20208;-82
2022/12/18 03:51:24;;;;;;;34.55;18.10;;;-4.80;99.90;;;;;;5062079;28;20231;-83
2022/12/18 03:53:57;;;;;;;26.23;17.30;;;-4.80;99.90;;;;;;5040206;28;20302;-82
2022/12/18 03:56:26;;;;;;;24.15;16.15;;;-4.80;99.90;;;;;;5045306;28;20208;-83
2022/12/18 03:58:56;;;;;;;27.67;16.48;;;-4.80;99.90;;;;;;5046654;28;20204;-82
2022/12/18 04:01:28;;;;;;;27.42;18.15;;;-4.80;99.90;;;;;;5046157;28;20227;-82
2022/12/18 04:03:59;;;;;;;25.88;15.73;;;-4.90;99.90;;;;;;5040902;28;20599;-82
2022/12/18 04:06:27;;;;;;;28.67;17.52;;;-4.80;99.90;;;;;;5054092;28;20209;-83
2022/12/18 04:08:54;;;;;;;27.35;16.60;;;-4.90;99.90;;;;;;5050965;28;20224;-83
2022/12/18 04:11:21;;;;;;;25.27;16.38;;;-4.90;99.90;;;;;;5051263;28;20257;-83
2022/12/18 04:13:48;;;;;;;26.52;16.10;;;-4.90;99.90;;;;;;5049825;28;20672;-81
2022/12/18 04:16:16;;;;;;;33.83;17.05;;;-5.00;99.90;;;;;;5062695;28;20323;-82
2022/12/18 04:18:43;;;;;;;24.13;16.70;;;-5.00;99.90;;;;;;5050400;28;20208;-82
2022/12/18 04:21:10;;;;;;;21.15;15.13;;;-4.90;99.90;;;;;;5049242;28;20264;-83
2022/12/18 04:23:37;;;;;;;24.10;16.98;;;-4.80;99.90;;;;;;5047823;28;20220;-81
2022/12/18 04:26:04;;;;;;;20.92;15.35;;;-4.90;99.90;;;;;;5048380;28;20272;-80
2022/12/18 04:28:31;;;;;;;25.40;16.15;;;-4.90;99.90;;;;;;5051762;28;20204;-82
2022/12/18 04:30:58;;;;;;;27.45;16.80;;;-4.90;99.90;;;;;;5048289;28;20272;-83
2022/12/18 04:33:26;;;;;;;22.15;16.08;;;-4.90;99.90;;;;;;5040505;28;20265;-82
2022/12/18 04:35:53;;;;;;;22.08;14.68;;;-4.80;99.90;;;;;;5047404;28;20201;-82
2022/12/18 04:38:20;;;;;;;28.75;15.77;;;-4.80;99.90;;;;;;5051467;28;20234;-81
2022/12/18 04:40:47;;;;;;;20.50;14.85;;;-4.90;99.90;;;;;;5057230;28;20425;-80
2022/12/18 04:43:14;;;;;;;23.25;13.55;;;-5.00;99.90;;;;;;5054949;28;20670;-82
2022/12/18 04:45:41;;;;;;;25.42;16.30;;;-5.10;99.90;;;;;;5052070;28;20219;-82
2022/12/18 04:48:07;;;;;;;24.90;16.70;;;-5.10;99.90;;;;;;5048959;28;20238;-82
2022/12/18 04:50:36;;;;;;;20.83;15.45;;;-5.10;99.90;;;;;;5045761;28;20232;-83
2022/12/18 04:53:03;;;;;;;25.00;14.02;;;-5.20;99.90;;;;;;5046343;28;20283;-82
2022/12/18 04:55:30;;;;;;;19.73;15.80;;;-5.20;99.90;;;;;;5047614;28;20231;-83
2022/12/18 04:57:57;;;;;;;23.35;16.48;;;-5.20;99.90;;;;;;5051210;28;20200;-83
2022/12/18 05:00:23;;;;;;;19.48;13.48;;;-5.10;99.90;;;;;;5048333;28;20286;-83
2022/12/18 05:02:50;;;;;;;23.70;13.55;;;-5.20;99.90;;;;;;5052802;28;20236;-82
2022/12/18 05:05:17;;;;;;;23.10;13.85;;;-5.10;99.90;;;;;;5052822;28;20275;-80
2022/12/18 05:07:46;;;;;;;28.92;14.23;;;-5.10;99.90;;;;;;5050746;28;20220;-83
2022/12/18 05:10:12;;;;;;;30.70;16.27;;;-5.10;99.90;;;;;;5049173;28;20209;-83
2022/12/18 05:12:57;;;;;;;24.40;14.98;;;-5.20;99.90;;;;;;5053243;28;20644;-81
2022/12/18 05:15:25;;;;;;;22.90;14.32;;;-5.10;99.90;;;;;;5062805;28;20206;-82
2022/12/18 05:17:52;;;;;;;21.92;14.68;;;-5.00;99.90;;;;;;5047294;28;20211;-83
2022/12/18 05:20:19;;;;;;;24.67;13.95;;;-5.20;99.90;;;;;;5039670;28;20210;-83
2022/12/18 05:22:47;;;;;;;21.05;13.68;;;-5.20;99.90;;;;;;5044987;28;20251;-83
2022/12/18 05:25:14;;;;;;;26.73;14.27;;;-5.10;99.90;;;;;;5048647;28;20223;-82
2022/12/18 05:27:42;;;;;;;20.50;13.98;;;-5.10;99.90;;;;;;5047944;28;20220;-81
2022/12/18 05:30:10;;;;;;;23.58;13.45;;;-5.10;99.90;;;;;;5042811;28;20201;-82
2022/12/18 05:32:37;;;;;;;21.48;14.57;;;-5.10;99.90;;;;;;5048579;28;20254;-83
2022/12/18 05:35:06;;;;;;;27.25;13.27;;;-5.10;99.90;;;;;;5045791;28;20211;-81
2022/12/18 05:37:33;;;;;;;19.25;13.57;;;-5.20;99.90;;;;;;5050728;28;20235;-83
2022/12/18 05:40:02;;;;;;;23.92;13.82;;;-5.10;99.90;;;;;;5047032;28;20267;-83
2022/12/18 05:42:29;;;;;;;27.58;13.75;;;-5.20;99.90;;;;;;5045209;28;20227;-82
2022/12/18 05:44:56;;;;;;;16.67;11.43;;;-5.20;99.90;;;;;;5048836;28;20276;-82
2022/12/18 05:47:22;;;;;;;28.95;15.15;;;-5.20;99.90;;;;;;5045639;28;20204;-83
2022/12/18 05:49:49;;;;;;;20.00;12.18;;;-5.20;99.90;;;;;;5047092;28;20219;-83
2022/12/18 05:52:16;;;;;;;20.85;13.20;;;-5.20;99.90;;;;;;5048120;28;20216;-82
2022/12/18 05:54:43;;;;;;;26.52;14.98;;;-5.20;99.90;;;;;;5043596;28;20228;-81
2022/12/18 05:57:11;;;;;;;21.00;14.73;;;-5.20;99.90;;;;;;5042236;28;20275;-82
2022/12/18 05:59:38;;;;;;;18.13;12.82;;;-5.30;99.90;;;;;;5047298;28;20623;-82
2022/12/18 06:02:05;;;;;;;26.25;15.77;;;-5.30;99.90;;;;;;5048699;28;20223;-82
2022/12/18 06:04:32;;;;;;;20.75;12.38;;;-5.40;99.90;;;;;;5068659;28;20283;-80
2022/12/18 06:06:59;;;;;;;20.70;13.55;;;-5.40;99.90;;;;;;5072918;28;20240;-82
2022/12/18 06:09:26;;;;;;;23.20;12.52;;;-5.40;99.90;;;;;;5074771;28;20218;-82
2022/12/18 06:11:53;;;;;;;22.70;14.93;;;-5.40;99.90;;;;;;5068763;28;20227;-80
2022/12/18 06:14:21;;;;;;;26.23;15.93;;;-5.40;99.90;;;;;;5070751;28;20232;-82
2022/12/18 06:16:48;;;;;;;25.88;14.90;;;-5.40;99.90;;;;;;5080688;28;20322;-82
2022/12/18 06:19:16;;;;;;;24.50;15.45;;;-5.40;99.90;;;;;;5080615;28;20210;-84
2022/12/18 06:21:43;;;;;;;21.38;13.10;;;-5.30;99.90;;;;;;5074174;28;20267;-80
2022/12/18 06:24:10;;;;;;;21.15;12.25;;;-5.40;99.90;;;;;;5079149;28;20210;-81
2022/12/18 06:26:38;;;;;;;21.10;13.32;;;-5.40;99.90;;;;;;5069580;28;20231;-82
2022/12/18 06:29:05;;;;;;;14.20;10.98;;;-5.30;99.90;;;;;;5073612;28;20203;-81
2022/12/18 06:31:34;;;;;;;20.15;12.20;;;-5.20;99.90;;;;;;5072465;28;20200;-81
2022/12/18 06:34:03;;;;;;;18.45;12.13;;;-5.10;99.90;;;;;;5064935;28;20245;-81
2022/12/18 06:36:29;;;;;;;20.60;11.90;;;-5.20;99.90;;;;;;5065750;28;20278;-83
2022/12/18 06:38:57;;;;;;;25.90;12.35;;;-5.20;99.90;;;;;;5070953;28;20218;-81
2022/12/18 06:41:24;;;;;;;19.73;14.82;;;-5.20;99.90;;;;;;5071519;28;20204;-82
2022/12/18 06:43:52;;;;;;;21.55;15.20;;;-5.40;99.90;;;;;;5054624;28;20233;-81
2022/12/18 06:46:19;;;;;;;20.63;13.35;;;-5.40;99.90;;;;;;5074152;28;20211;-81
2022/12/18 06:48:49;;;;;;;19.85;12.52;;;-5.40;99.90;;;;;;5085928;28;20227;-83
2022/12/18 06:51:18;;;;;;;22.50;11.93;;;-5.20;99.90;;;;;;5080670;28;20199;-81
2022/12/18 06:53:45;;;;;;;19.63;13.27;;;-5.20;99.90;;;;;;5073354;28;20243;-82
2022/12/18 06:56:12;;;;;;;20.55;11.35;;;-5.40;99.90;;;;;;5058183;28;20199;-82
2022/12/18 06:58:39;;;;;;;26.75;13.95;;;-5.40;99.90;;;;;;5067516;28;20235;-83
2022/12/18 07:01:07;;;;;;;18.58;13.10;;;-5.40;99.90;;;;;;5084032;28;20230;-83
2022/12/18 07:03:34;;;;;;;17.83;12.65;;;-5.40;99.90;;;;;;5080508;28;20287;-82
2022/12/18 07:06:03;;;;;;;22.90;14.45;;;-5.50;99.90;;;;;;5067429;28;20203;-83
2022/12/18 07:08:30;;;;;;;19.23;14.30;;;-5.50;99.90;;;;;;5087761;28;20264;-81
2022/12/18 07:10:57;;;;;;;19.40;11.88;;;-5.50;99.90;;;;;;5082052;28;20279;-82
2022/12/18 07:13:24;;;;;;;23.55;13.70;;;-5.40;99.90;;;;;;5079126;28;20222;-83
2022/12/18 07:15:50;;;;;;;20.55;12.55;;;-5.40;99.90;;;;;;5060553;28;20246;-82
2022/12/18 07:18:17;;;;;;;17.20;13.25;;;-5.40;99.90;;;;;;5070837;28;20452;-82
2022/12/18 07:20:44;;;;;;;18.67;12.80;;;-5.30;99.90;;;;;;5069222;28;20267;-82
2022/12/18 07:23:12;;;;;;;19.77;12.40;;;-5.40;99.90;;;;;;5075417;28;20291;-82
2022/12/18 07:25:39;;;;;;;18.33;12.18;;;-5.40;99.90;;;;;;5069932;28;20195;-81
2022/12/18 07:28:06;;;;;;;17.38;11.32;;;-5.40;99.90;;;;;;5060735;28;20242;-83
2022/12/18 07:30:33;;;;;;;17.33;12.88;;;-5.40;99.90;;;;;;5066994;28;20266;-82
2022/12/18 07:33:00;;;;;;;23.25;13.25;;;-5.40;99.90;;;;;;5070241;28;20669;-82
2022/12/18 07:35:26;;;;;;;19.77;13.07;;;-5.50;99.90;;;;;;5061039;28;20275;-82
2022/12/18 07:37:53;;;;;;;21.10;13.48;;;-5.50;99.90;;;;;;5071566;28;20263;-82
2022/12/18 07:40:22;;;;;;;26.38;13.75;;;-5.40;99.90;;;;;;5077731;28;20259;-83
2022/12/18 07:42:48;;;;;;;28.75;14.55;;;-5.40;99.90;;;;;;5076819;28;20203;-82
2022/12/18 07:45:15;;;;;;;17.50;12.57;;;-5.50;99.90;;;;;;5082787;28;20187;-83
2022/12/18 07:47:42;;;;;;;24.52;13.10;;;-5.50;99.90;;;;;;5090641;28;20194;-84
2022/12/18 07:50:10;;;;;;;18.77;13.13;;;-5.50;99.90;;;;;;5079705;28;20279;-82
2022/12/18 07:52:37;;;;;;;20.48;13.95;;;-5.50;99.90;;;;;;5076021;28;20215;-81
2022/12/18 07:55:04;;;;;;;22.00;14.77;;;-5.40;99.90;;;;;;5069557;28;20207;-83
2022/12/18 07:57:33;;;;;;;17.20;13.07;;;-5.40;99.90;;;;;;5076927;28;20179;-82
2022/12/18 08:00:06;;;;;;;20.60;12.75;;;-5.40;99.90;;;;;;5083182;28;20961;-80
2022/12/18 08:02:36;;;;;;;18.23;11.75;;;-5.50;99.90;;;;;;5063343;28;20280;-81
2022/12/18 08:05:03;;;;;;;21.90;13.00;;;-5.40;99.90;;;;;;5051980;28;20240;-82
2022/12/18 08:07:29;;;;;;;22.80;13.45;;;-5.40;99.90;;;;;;5053150;28;20211;-81
2022/12/18 08:09:56;;;;;;;26.08;13.40;;;-5.40;99.90;;;;;;5048304;28;20215;-83
2022/12/18 08:12:24;;;;;;;16.88;11.57;;;-5.40;99.90;;;;;;5044570;28;20224;-79
2022/12/18 08:14:52;;;;;;;23.25;13.00;;;-5.40;99.90;;;;;;5049552;28;20208;-82
2022/12/18 08:17:21;;;;;;;16.90;12.48;;;-5.40;99.90;;;;;;5048076;28;20208;-82
2022/12/18 08:19:47;;;;;;;21.42;12.88;;;-5.30;99.90;;;;;;5055170;28;20228;-81
2022/12/18 08:22:14;;;;;;;20.48;13.68;;;-5.10;99.90;;;;;;5058546;28;20228;-79
2022/12/18 08:24:44;;;;;;;20.55;14.60;;;-4.90;99.90;;;;;;5055881;28;20212;-81
2022/12/18 08:27:11;;;;;;;18.13;12.05;;;-4.70;99.90;;;;;;5052529;28;20197;-82
2022/12/18 08:29:38;;;;;;;19.10;11.88;;;-4.50;99.90;;;;;;5049106;28;20204;-82
2022/12/18 08:32:07;;;;;;;20.65;12.65;;;-4.50;99.90;;;;;;5046396;28;20280;-84
2022/12/18 08:34:34;;;;;;;19.92;11.60;;;-4.40;99.90;;;;;;5048671;28;20240;-84
2022/12/18 08:37:01;;;;;;;16.70;10.27;;;-4.30;99.90;;;;;;5049164;28;20243;-84
2022/12/18 08:39:31;;;;;;;16.70;11.95;;;-4.30;99.90;;;;;;5057250;28;20261;-88
2022/12/18 08:45:11;;;;;;;21.23;12.32;;;-4.30;99.90;;;;;;5056067;28;20223;-84
2022/12/18 08:51:21;;;;;;;24.50;11.25;;;-3.70;99.90;;;;;;4954267;29;20271;-90
2022/12/18 08:53:49;;;;;;;12.50;10.20;;;-3.10;99.90;;;;;;4947004;28;20218;-84
2022/12/18 08:56:17;;;;;;;15.55;10.45;;;-2.00;99.90;;;;;;5009706;28;20179;-84
2022/12/18 08:58:44;;;;;;;13.07;10.25;;;-1.30;99.90;;;;;;5070534;22;20320;-69
2022/12/18 09:01:13;;;;;;;15.75;10.65;;;-0.50;99.90;;;;;;5030552;28;20203;-68
2022/12/18 09:03:40;;;;;;;17.67;11.55;;;0.10;99.90;;;;;;5112758;22;20306;-79
2022/12/18 09:06:08;;;;;;;12.73;10.23;;;0.50;99.90;;;;;;5079599;28;20184;-80
2022/12/18 09:08:37;;;;;;;16.58;9.90;;;0.90;99.90;;;;;;5072797;28;20200;-79
2022/12/18 09:11:04;;;;;;;12.68;9.38;;;1.20;99.90;;;;;;5069605;28;20189;-80
2022/12/18 09:13:31;;;;;;;13.55;9.13;;;1.70;99.90;;;;;;5059032;28;20227;-86
2022/12/18 09:15:58;;;;;;;13.38;10.50;;;1.60;99.10;;;;;;5055373;28;20235;-84
2022/12/18 09:18:25;;;;;;;13.70;11.07;;;1.80;99.50;;;;;;5060573;28;20201;-83
2022/12/18 09:20:56;;;;;;;15.10;10.05;;;2.50;99.60;;;;;;5052468;28;20180;-87
2022/12/18 09:23:29;;;;;;;17.17;11.82;;;3.00;97.00;;;;;;5048307;28;20220;-85
2022/12/18 09:26:53;;;;;;;14.73;11.77;;;2.70;95.70;;;;;;5049988;28;20551;-87
2022/12/18 09:29:26;;;;;;;17.25;11.95;;;2.30;96.30;;;;;;5051117;28;20644;-84
2022/12/18 09:31:56;;;;;;;14.00;10.70;;;1.50;97.30;;;;;;5044559;28;20255;-83
2022/12/18 09:34:23;;;;;;;14.90;10.75;;;1.10;99.50;;;;;;5054067;28;20227;-82
2022/12/18 09:36:50;;;;;;;17.20;11.00;;;0.80;99.90;;;;;;5049242;28;20184;-84
2022/12/18 09:39:17;;;;;;;16.65;10.05;;;0.70;99.90;;;;;;5053918;28;20185;-81
2022/12/18 09:41:49;;;;;;;15.15;10.73;;;0.60;99.90;;;;;;5047724;28;20224;-84
2022/12/18 09:44:26;;;;;;;17.40;12.98;;;0.80;99.90;;;;;;5049292;28;20204;-81
2022/12/18 09:47:06;;;;;;;18.40;12.57;;;0.60;99.90;;;;;;5047964;28;20200;-82
2022/12/18 09:49:37;;;;;;;12.05;10.60;;;0.30;99.90;;;;;;5041317;28;20227;-82
2022/12/18 09:52:12;;;;;;;12.18;10.40;;;0.10;99.90;;;;;;5038656;28;20280;-83
2022/12/18 09:54:41;;;;;;;16.02;11.35;;;-0.20;99.90;;;;;;5050074;28;20214;-83
2022/12/18 09:57:20;;;;;;;18.95;11.90;;;-0.70;99.90;;;;;;5055757;28;20692;-86
2022/12/18 09:59:52;;;;;;;31.42;14.10;;;-0.90;99.90;;;;;;5051717;28;20208;-86
2022/12/18 10:02:22;;;;;;;16.63;11.40;;;-0.80;99.90;;;;;;5049908;28;20221;-83
2022/12/18 10:05:06;;;;;;;17.88;11.77;;;-0.70;99.90;;;;;;5052650;28;20224;-82
2022/12/18 10:07:50;;;;;;;19.60;11.02;;;-0.80;99.90;;;;;;5050982;28;20256;-88
2022/12/18 10:10:34;;;;;;;18.77;11.13;;;-1.10;99.90;;;;;;5049251;28;20192;-85
2022/12/18 10:13:10;;;;;;;22.30;12.82;;;-1.10;99.90;;;;;;5050351;28;20242;-83
2022/12/18 10:15:43;;;;;;;16.80;11.27;;;-1.10;99.90;;;;;;5044618;28;20212;-84
2022/12/18 10:18:26;;;;;;;21.48;12.20;;;-1.10;99.90;;;;;;5051381;28;20212;-84
2022/12/18 10:20:55;;;;;;;17.58;11.77;;;-1.20;99.90;;;;;;5043902;28;20293;-83
2022/12/18 10:23:28;;;;;;;13.63;11.40;;;-1.30;99.90;;;;;;5048157;28;20235;-83
2022/12/18 10:26:00;;;;;;;18.45;11.45;;;-1.20;99.90;;;;;;5041005;28;20204;-85
2022/12/18 10:28:31;;;;;;;16.70;13.70;;;-1.20;99.90;;;;;;5054033;28;20275;-83
2022/12/18 10:30:59;;;;;;;19.88;13.10;;;-1.30;99.90;;;;;;5047048;28;20204;-83
2022/12/18 10:33:31;;;;;;;18.85;11.15;;;-1.40;99.90;;;;;;5048135;28;20258;-83
2022/12/18 10:35:58;;;;;;;19.65;12.82;;;-1.40;99.90;;;;;;5050469;28;20220;-83
2022/12/18 10:38:26;;;;;;;20.70;12.73;;;-1.50;99.90;;;;;;5050938;28;20303;-83
2022/12/18 10:40:55;;;;;;;15.60;11.32;;;-1.50;99.90;;;;;;5051481;28;20240;-84
2022/12/18 10:43:26;;;;;;;20.38;11.25;;;-1.80;99.90;;;;;;5049417;28;20225;-84
2022/12/18 10:46:05;;;;;;;16.33;11.35;;;-1.70;99.90;;;;;;5052663;28;20216;-83
2022/12/18 10:48:34;;;;;;;19.58;12.82;;;-2.00;99.90;;;;;;5035723;28;20208;-83
2022/12/18 10:51:01;;;;;;;18.42;14.23;;;-2.00;99.90;;;;;;5050675;28;20200;-84
2022/12/18 10:53:30;;;;;;;19.08;12.43;;;-1.90;99.90;;;;;;5048145;28;20223;-85
2022/12/18 10:55:59;;;;;;;18.17;12.23;;;-1.90;99.90;;;;;;5046437;28;20223;-84
2022/12/18 10:58:31;;;;;;;20.88;12.93;;;-1.80;99.90;;;;;;5045364;28;20238;-84
2022/12/18 11:01:09;;;;;;;23.75;11.50;;;-1.80;99.90;;;;;;5044131;28;20216;-82
2022/12/18 11:03:38;;;;;;;17.88;11.00;;;-1.80;99.90;;;;;;5033917;28;20236;-83
2022/12/18 11:06:11;;;;;;;15.90;10.82;;;-1.80;99.90;;;;;;5039547;28;20238;-84
2022/12/18 11:08:39;;;;;;;17.00;11.50;;;-1.80;99.90;;;;;;5044178;28;20203;-84
2022/12/18 11:11:20;;;;;;;15.10;12.75;;;-1.70;99.90;;;;;;5035397;28;20243;-83
2022/12/18 11:13:58;;;;;;;16.67;10.95;;;-1.60;99.90;;;;;;5031851;28;20475;-83
2022/12/18 11:16:28;;;;;;;16.83;12.52;;;-1.50;99.90;;;;;;5049296;28;20224;-82
2022/12/18 11:19:00;;;;;;;16.27;11.00;;;-1.30;99.90;;;;;;5049946;28;20204;-82
2022/12/18 11:21:28;;;;;;;23.10;12.13;;;-1.30;99.90;;;;;;5047142;28;20283;-82
2022/12/18 11:23:56;;;;;;;16.10;10.95;;;-1.20;99.90;;;;;;5051962;28;20250;-82
2022/12/18 11:26:36;;;;;;;17.90;10.90;;;-1.10;99.90;;;;;;5052145;28;20215;-81
2022/12/18 11:29:10;;;;;;;15.98;10.35;;;-1.00;99.90;;;;;;5044623;28;20234;-80
2022/12/18 11:31:40;;;;;;;21.48;10.70;;;-0.90;99.90;;;;;;5066845;28;20242;-80
2022/12/18 11:34:13;;;;;;;22.08;11.18;;;-1.00;99.90;;;;;;5051165;22;20709;-69
2022/12/18 11:36:43;;;;;;;15.88;10.55;;;-0.80;99.90;;;;;;5029396;28;20712;-71
2022/12/18 11:39:18;;;;;;;12.50;9.35;;;-0.80;99.90;;;;;;5032616;28;20216;-68
2022/12/18 11:44:39;;;;;;;14.57;9.60;;;-0.60;99.90;;;;;;5033181;28;20207;-69
2022/12/18 11:47:16;;;;;;;17.52;11.18;;;-0.50;99.90;;;;;;5031887;28;20200;-67
2022/12/18 11:49:43;;;;;;;12.93;9.00;;;-0.40;99.90;;;;;;5031080;28;20316;-67
2022/12/18 11:52:17;;;;;;;18.48;10.23;;;-0.50;99.90;;;;;;5032404;28;20196;-70
2022/12/18 11:54:45;;;;;;;12.70;10.35;;;-0.40;99.90;;;;;;5032490;28;20222;-69
2022/12/18 11:57:21;;;;;;;11.05;9.80;;;-0.40;99.90;;;;;;5032906;28;20262;-69
2022/12/18 11:59:56;;;;;;;17.05;9.65;;;-0.40;99.90;;;;;;5032055;28;20322;-70
2022/12/18 12:02:47;;;;;;;17.67;10.38;;;-0.40;99.90;;;;;;5032847;28;20290;-71
2022/12/18 12:05:26;;;;;;;13.68;8.98;;;-0.40;99.90;;;;;;5033012;28;20192;-70
2022/12/18 12:07:58;;;;;;;15.82;10.02;;;-0.40;99.90;;;;;;5037991;28;20246;-69
2022/12/18 12:10:39;;;;;;;12.20;9.43;;;-0.40;99.90;;;;;;5031755;28;20230;-68
2022/12/18 12:13:21;;;;;;;10.98;9.20;;;-0.40;99.90;;;;;;5027898;28;20196;-70
2022/12/18 12:16:01;;;;;;;15.35;9.98;;;-0.40;99.90;;;;;;5032527;28;20258;-68
2022/12/18 12:18:42;;;;;;;11.57;9.57;;;-0.40;99.90;;;;;;5031057;28;20310;-67
2022/12/18 12:21:18;;;;;;;16.67;9.70;;;-0.40;99.90;;;;;;5025492;28;20619;-69
2022/12/18 12:23:55;;;;;;;14.10;10.05;;;-0.30;99.90;;;;;;5032559;28;20196;-68
2022/12/18 12:26:28;;;;;;;13.00;9.52;;;-0.40;99.90;;;;;;5041650;28;20591;-69
2022/12/18 12:29:11;;;;;;;14.88;9.70;;;-0.40;99.90;;;;;;5040183;28;20261;-69
2022/12/18 12:31:53;;;;;;;13.38;10.30;;;-0.40;99.90;;;;;;5034111;28;20204;-69
2022/12/18 12:34:26;;;;;;;16.05;10.20;;;-0.30;99.90;;;;;;5029830;28;20234;-68
2022/12/18 12:37:09;;;;;;;12.25;9.88;;;-0.30;99.90;;;;;;5035811;28;20224;-68
2022/12/18 12:39:38;;;;;;;14.35;10.70;;;-0.30;99.90;;;;;;5034440;28;20231;-69
2022/12/18 12:45:02;;;;;;;12.65;10.90;;;-0.40;99.90;;;;;;5027076;28;20204;-68
2022/12/18 12:47:34;;;;;;;17.73;11.55;;;-0.50;99.90;;;;;;5029750;28;20192;-70
2022/12/18 12:50:13;;;;;;;14.63;9.95;;;-0.50;99.90;;;;;;5033358;28;20226;-71
2022/12/18 12:52:44;;;;;;;13.70;10.43;;;-0.40;99.90;;;;;;5035664;28;20609;-72
2022/12/18 12:55:16;;;;;;;16.15;10.40;;;-0.40;99.90;;;;;;5032791;28;20231;-71
2022/12/18 12:57:49;;;;;;;17.67;11.43;;;-0.40;99.90;;;;;;5032683;28;20539;-70
2022/12/18 13:00:19;;;;;;;16.02;11.43;;;-0.50;99.90;;;;;;5034321;28;20969;-68